AirNav   Air Wisconsin pilot careers
 
 937 users online  

CYAM Sault Ste Marie Airport
Sault Ste Marie, Ontario, Canada


FAA INFORMATION EFFECTIVE 12 OCTOBER 2017

Location

FAA Identifier: CYAM
Lat/Long: 46-29-06.0000N / 084-30-34.0000W
46-29.100000N / 084-30.566667W
46.4850000 / -84.5094444
(estimated)
Elevation: 630 ft. / 192 m (estimated)
Variation: 07W ()
From city: 8 miles WSW of SAULT STE MARIE,
Time zone: UTC -4 (UTC -5 during Standard Time)
Zip code: 49710

Airport Operations

Airport use: Open to the public
Activation date: 03/2005
Control tower: no
ARTCC: TORONTO CENTER
FSS: LONDON FIC FLIGHT SERVICE STATION
Attendance: 
Segmented circle: no

Airport Communications

WX ASOS at ANJ (6 nm E): 118.375 (906-632-8501)
WX AWOS-3PT at CIU (14 nm S): 127.575 (906-495-7134)

Nearby radio navigation aids

VOR radial/distance  VOR name  Freq  Var
SSMr303/9.2SAULT STE MARIE VOR/DME112.2004W

 
NDB name  Hdg/Dist  Freq  Var  ID
KOLOE015/9.340007WCI -.-. ..

Airport Services

Runway Information

Runway 4/22

Dimensions: 6000 x 200 ft. / 1829 x 61 m
Surface: asphalt
RUNWAY 4  RUNWAY 22
Traffic pattern: leftleft

Runway 12/30

Dimensions: 6000 x 200 ft. / 1829 x 61 m
Surface: asphalt
RUNWAY 12  RUNWAY 30
Traffic pattern: leftleft

Airport Ownership and Management from official FAA records

Ownership: Publicly-owned

Instrument Procedures

There are no published instrument procedures at CYAM.

Some nearby airports with instrument procedures:

KANJ - Sault Ste Marie Municipal Airport/Sanderson Field (6 nm E)
KCIU - Chippewa County International Airport (14 nm S)
83D - Mackinac County Airport (37 nm S)
KMCD - Mackinac Island Airport (38 nm S)
KERY - Luce County Airport (41 nm W)
 
Loc | Ops | Rwys | IFR | FBO | Links
Com | Nav | Svcs | Stats | Notes


 
Aerial photo
No photo
 
Airport distance calculator
Flying to Sault Ste Marie Airport? Find the distance to fly.

From to CYAM

Sunrise and sunset
Times for 19-Oct-2017
 Local
(UTC-4)
 Zulu
(UTC)
Morning civil twilight07:3111:31
Sunrise08:0212:02
Sunset18:4422:44
Evening civil twilight19:1523:15

Current date and time
Zulu (UTC)  20-Oct-2017 01:04:17
Local (UTC-4)  19-Oct-2017 21:04:17
 
METAR
CYAM 200000Z 28009KT 15SM SCT270 SCT320 13/01 A3001 RMK CI3CI1 SLP169
KANJ 
6nm E 
200055Z AUTO 26006KT 10SM CLR 11/01 A3003 RMK AO2 SLP170 T01110006 $
KCIU 
14nm S 
200056Z AUTO 25004KT 10SM CLR 10/M02 A3005 RMK AO2 SLP206 T01001022 PNO $
TAF
CYAM 191938Z 1920/2008 27015G25KT P6SM SKC BECMG 1922/1924 28012KT BECMG 2001/2003 25008KT RMK NXT FCST BY 200200Z
NOTAMs
Click for the latest NOTAMs
NOTAMs are issued by the DoD/FAA and will open in a separate window not controlled by AirNav.

 

 
 

Would you like to see your business listed on this page?

 If your business provides an interesting product or service to pilots, flight crews, aircraft, or users of the Sault Ste Marie Airport, you should consider listing it here.  To start the listing process, click on the button below
 
Add a business
 

Other Pages about Sault Ste Marie Airport

Update a link
 
Copyright © AirNav, LLC. All rights reserved. Privacy Policy  Contact